Overview Statistics Trail Chart Weather Telemetry Raw packets
 

This is the latest recevied weather packets stored in our database for station/object NK7E-2. If no packets are shown the sender has not sent any weather packets the latest 10 day(s).

<< 15 16 17 18 19 20 21 >>
Time Temp. Humidity Pressure Rain* Wind** Luminosity Snow
1788216617 20.56° C 86% 1025.5 hPa 0 mm - - -
1788216022 20° C 88% 1025.3 hPa 0 mm - - -
1788215417 20° C 90% 1025.2 hPa 0.25 mm - - -
1788214817 21.67° C 85% 1025.7 hPa 0.51 mm - - -
1788214217 22.22° C 71% 1025.7 hPa 0.76 mm - - -
1788213617 21.67° C 73% 1025.8 hPa 1.02 mm - - -
1788213017 21.11° C 77% 1026.5 hPa 1.52 mm - - -
1788212417 21.11° C 80% 1026.6 hPa 3.3 mm - - -
1788211817 21.11° C 82% 1027.7 hPa 3.81 mm - - -
1788211217 21.11° C 84% 1027.7 hPa 3.56 mm - - -
1788210617 20.56° C 84% 1028.4 hPa 3.3 mm - - -
1788210017 20.56° C 89% 1028.9 hPa 3.05 mm - - -
1788209417 20.56° C 88% 1029.5 hPa 2.54 mm - - -
1788208817 20.56° C 86% 1030.2 hPa 1.02 mm - - -
1788208217 21.11° C 84% 1030.4 hPa 1.27 mm - - -
1788207617 21.11° C 82% 1030.5 hPa 1.52 mm - - -
1788207017 21.11° C 84% 1030.3 hPa 1.52 mm - - -
1788206417 21.11° C 83% 1030.4 hPa 1.52 mm - - -
1788205817 21.11° C 82% 1030.8 hPa 1.52 mm - - -
1788205217 21.67° C 82% 1031.1 hPa 1.27 mm - - -
1788204617 22.22° C 77% 1031 hPa 0.25 mm - - -
1788204017 22.78° C 72% 1031.2 hPa 0 mm - - -
1788203416 23.33° C 72% 1030.9 hPa 0 mm - - -
1788202816 23.33° C 69% 1030.7 hPa 0 mm - - -
1788202223 23.33° C 70% 1030.7 hPa 0 mm - - -

* Rain latest hour (hover to see other rain measurements)
** Current wind speed in m/s (hover to see current wind gust speed)